Time;durP1;ratioP1;P1;durP2;ratioP2;P2;SDS_P1;SDS_P2;PMS_P1;PMS_P2;Temp;Humidity;BMP_temperature;BMP_pressure;BME280_temperature;BME280_humidity;BME280_pressure;Samples;Min_cycle;Max_cycle;Signal;HPM_P1;HPM_P2
2021/01/25 00:00:12;;;;;;;8.55;1.80;;;8.10;99.90;;;;;;5072953;28;20028;-60
2021/01/25 00:02:38;;;;;;;5.88;1.60;;;7.90;99.90;;;;;;5081595;28;20051;-60
2021/01/25 00:05:06;;;;;;;8.02;1.73;;;8.00;99.90;;;;;;5092169;28;20034;-60
2021/01/25 00:07:33;;;;;;;8.63;1.88;;;8.10;99.90;;;;;;5083497;28;20020;-60
2021/01/25 00:09:59;;;;;;;7.20;1.70;;;8.10;99.90;;;;;;5072505;28;20051;-60
2021/01/25 00:12:25;;;;;;;9.43;1.95;;;8.20;99.90;;;;;;5083945;28;20029;-59
2021/01/25 00:14:51;;;;;;;7.32;1.48;;;8.10;99.90;;;;;;5072371;28;20420;-59
2021/01/25 00:17:17;;;;;;;7.93;1.60;;;8.10;99.90;;;;;;5084994;28;20043;-59
2021/01/25 00:19:42;;;;;;;12.85;1.67;;;8.10;99.90;;;;;;5092665;28;20392;-59
2021/01/25 00:22:08;;;;;;;10.82;1.98;;;8.20;99.90;;;;;;5085476;28;20040;-59
2021/01/25 00:24:34;;;;;;;7.47;1.38;;;8.10;99.90;;;;;;5072190;28;20468;-59
2021/01/25 00:26:59;;;;;;;10.40;1.65;;;8.20;99.90;;;;;;5083115;28;20066;-59
2021/01/25 00:29:25;;;;;;;8.13;1.88;;;8.20;99.90;;;;;;5072813;28;20044;-59
2021/01/25 00:31:51;;;;;;;11.95;2.15;;;8.30;99.90;;;;;;5081606;28;20111;-59
2021/01/25 00:34:16;;;;;;;7.38;1.60;;;8.10;99.90;;;;;;5073673;28;20032;-59
2021/01/25 00:36:42;;;;;;;10.15;1.80;;;8.10;99.90;;;;;;5080333;28;20028;-60
2021/01/25 00:39:08;;;;;;;7.55;1.70;;;8.10;99.90;;;;;;5075243;28;20032;-59
2021/01/25 00:41:34;;;;;;;8.52;1.80;;;8.10;99.90;;;;;;5078973;28;20046;-59
2021/01/25 00:43:59;;;;;;;4.93;1.42;;;8.10;99.90;;;;;;5076217;28;20419;-59
2021/01/25 00:46:25;;;;;;;4.60;1.50;;;8.10;99.90;;;;;;5077434;28;20046;-59
2021/01/25 00:48:50;;;;;;;6.75;1.58;;;8.10;99.90;;;;;;5077273;28;20469;-59
2021/01/25 00:51:16;;;;;;;11.60;1.60;;;8.30;99.90;;;;;;5076199;28;20110;-59
2021/01/25 00:53:42;;;;;;;7.38;1.58;;;8.20;99.90;;;;;;5078196;28;20027;-59
2021/01/25 00:56:10;;;;;;;9.95;1.85;;;8.10;99.90;;;;;;5075146;28;20021;-59
2021/01/25 00:58:36;;;;;;;8.02;1.42;;;8.10;99.90;;;;;;5078898;28;20036;-60
2021/01/25 01:01:02;;;;;;;11.20;1.92;;;8.20;99.90;;;;;;5073909;28;20028;-60
2021/01/25 01:03:28;;;;;;;10.15;1.40;;;8.20;99.90;;;;;;5080166;28;20358;-59
2021/01/25 01:05:54;;;;;;;10.70;1.80;;;8.10;99.90;;;;;;5073412;28;20039;-59
2021/01/25 01:08:19;;;;;;;12.95;1.80;;;8.10;99.90;;;;;;5080316;28;20036;-59
2021/01/25 01:10:46;;;;;;;7.00;1.70;;;8.10;99.90;;;;;;5074045;28;20027;-59
2021/01/25 01:13:11;;;;;;;4.72;1.40;;;8.20;99.90;;;;;;5080151;28;20173;-59
2021/01/25 01:15:37;;;;;;;8.82;1.50;;;8.20;99.90;;;;;;5073763;28;20098;-59
2021/01/25 01:18:03;;;;;;;7.45;1.67;;;8.00;99.90;;;;;;5087753;28;20008;-59
2021/01/25 01:20:28;;;;;;;4.03;1.48;;;8.10;99.90;;;;;;5089045;28;20075;-59
2021/01/25 01:22:55;;;;;;;6.97;1.80;;;8.10;99.90;;;;;;5080194;28;20091;-59
2021/01/25 01:25:20;;;;;;;8.38;1.70;;;8.10;99.90;;;;;;5072385;28;20059;-59
2021/01/25 01:27:46;;;;;;;11.95;1.52;;;8.10;99.90;;;;;;5081175;28;20492;-59
2021/01/25 01:30:12;;;;;;;10.25;1.88;;;8.20;99.90;;;;;;5071705;28;20060;-59
2021/01/25 01:32:38;;;;;;;7.05;1.70;;;8.00;99.90;;;;;;5081957;28;20119;-59
2021/01/25 01:35:06;;;;;;;10.75;1.85;;;8.20;99.90;;;;;;5070959;28;20162;-59
2021/01/25 01:37:32;;;;;;;8.15;1.90;;;8.10;99.90;;;;;;5081821;28;20024;-59
2021/01/25 01:39:57;;;;;;;6.53;1.63;;;8.20;99.90;;;;;;5070791;28;20021;-59
2021/01/25 01:42:23;;;;;;;7.00;1.75;;;8.10;99.90;;;;;;5082136;28;20039;-59
2021/01/25 01:44:49;;;;;;;7.47;1.88;;;8.20;99.90;;;;;;5070582;28;20508;-59
2021/01/25 01:47:18;;;;;;;8.77;1.90;;;8.10;99.90;;;;;;5082010;28;20036;-59
2021/01/25 01:49:44;;;;;;;8.52;1.70;;;8.20;99.90;;;;;;5070277;28;20472;-60
2021/01/25 01:52:10;;;;;;;8.15;1.83;;;8.20;99.90;;;;;;5082166;28;20052;-60
2021/01/25 01:54:37;;;;;;;9.35;1.80;;;8.20;99.90;;;;;;5070739;28;20035;-59
2021/01/25 01:57:03;;;;;;;7.45;1.42;;;8.10;99.90;;;;;;5081284;28;20027;-59
2021/01/25 01:59:29;;;;;;;7.32;1.58;;;8.10;99.90;;;;;;5070631;28;20038;-59
2021/01/25 02:01:54;;;;;;;14.02;1.80;;;8.20;99.90;;;;;;5084238;28;20040;-59
2021/01/25 02:04:20;;;;;;;7.70;1.45;;;8.10;99.90;;;;;;5090457;28;20077;-59
2021/01/25 02:06:47;;;;;;;12.35;1.88;;;8.00;99.90;;;;;;5084148;28;20114;-59
2021/01/25 02:09:13;;;;;;;3.67;1.30;;;7.90;99.90;;;;;;5072853;28;20516;-59
2021/01/25 02:11:40;;;;;;;4.40;1.20;;;8.00;99.90;;;;;;5077856;28;20047;-59
2021/01/25 02:14:07;;;;;;;6.47;1.25;;;8.00;99.90;;;;;;5073995;28;20392;-59
2021/01/25 02:16:36;;;;;;;5.50;1.08;;;8.10;99.90;;;;;;5076619;28;20031;-59
2021/01/25 02:19:01;;;;;;;7.70;1.10;;;7.90;99.90;;;;;;5089378;28;21079;-59
2021/01/25 02:21:32;;;;;;;3.70;1.20;;;7.90;99.90;;;;;;5083582;28;20056;-59
2021/01/25 02:24:23;;;;;;;6.47;1.63;;;8.00;99.90;;;;;;5074840;28;20032;-59
2021/01/25 02:27:06;;;;;;;7.13;1.60;;;8.00;99.90;;;;;;5078876;28;20630;-60
2021/01/25 02:29:33;;;;;;;6.57;1.30;;;8.00;99.90;;;;;;5070107;28;20017;-59
2021/01/25 02:31:59;;;;;;;7.72;1.42;;;7.90;99.90;;;;;;5080112;28;20020;-60
2021/01/25 02:34:29;;;;;;;5.75;1.10;;;7.90;99.90;;;;;;5070871;28;20119;-59
2021/01/25 02:36:57;;;;;;;4.82;1.23;;;7.90;99.90;;;;;;5079408;28;20030;-60
2021/01/25 02:39:24;;;;;;;11.45;1.27;;;7.90;99.90;;;;;;5071384;28;20544;-59
2021/01/25 02:41:51;;;;;;;5.82;1.25;;;7.90;99.90;;;;;;5078759;28;20039;-59
2021/01/25 02:44:17;;;;;;;3.08;1.25;;;7.80;99.90;;;;;;5072001;28;20111;-59
2021/01/25 02:46:44;;;;;;;3.08;0.90;;;7.90;99.90;;;;;;5077542;28;20039;-59
2021/01/25 02:49:11;;;;;;;7.05;1.10;;;7.90;99.90;;;;;;5072648;28;20385;-59
2021/01/25 02:51:37;;;;;;;5.45;1.10;;;7.90;99.90;;;;;;5076727;28;20032;-59
2021/01/25 02:54:02;;;;;;;4.22;0.70;;;7.90;99.90;;;;;;5073859;28;20021;-59
2021/01/25 02:56:28;;;;;;;5.28;1.15;;;7.80;99.90;;;;;;5075606;28;20043;-59
2021/01/25 02:58:54;;;;;;;3.70;0.82;;;7.80;99.90;;;;;;5075096;28;20043;-59
2021/01/25 03:01:20;;;;;;;3.97;1.00;;;7.90;99.90;;;;;;5074071;28;20116;-59
2021/01/25 03:03:47;;;;;;;3.63;1.10;;;7.90;99.90;;;;;;5076023;28;20169;-60
2021/01/25 03:06:13;;;;;;;4.40;1.20;;;7.90;99.90;;;;;;5073206;28;20035;-59
2021/01/25 03:08:39;;;;;;;3.00;1.10;;;7.90;99.90;;;;;;5077224;28;20021;-59
2021/01/25 03:11:05;;;;;;;3.67;0.90;;;7.90;99.90;;;;;;5072066;28;20481;-59
2021/01/25 03:13:30;;;;;;;3.85;0.90;;;8.00;99.90;;;;;;5078278;28;20717;-59
2021/01/25 03:15:58;;;;;;;4.95;0.88;;;7.90;99.90;;;;;;5071967;28;20039;-59
2021/01/25 03:18:24;;;;;;;6.28;1.40;;;7.90;99.90;;;;;;5088724;28;20023;-59
2021/01/25 03:20:51;;;;;;;2.42;0.95;;;7.90;99.90;;;;;;5085092;28;20043;-59
2021/01/25 03:23:17;;;;;;;4.30;1.10;;;7.90;99.90;;;;;;5078473;28;20495;-60
2021/01/25 03:25:44;;;;;;;4.45;1.20;;;8.00;99.90;;;;;;5071914;28;20102;-60
2021/01/25 03:28:10;;;;;;;2.33;0.80;;;7.90;99.90;;;;;;5078247;28;20115;-59
2021/01/25 03:30:36;;;;;;;2.88;0.70;;;7.90;99.90;;;;;;5074735;28;20388;-59
2021/01/25 03:33:03;;;;;;;3.03;1.23;;;8.00;99.90;;;;;;5082280;28;20426;-59
2021/01/25 03:35:29;;;;;;;4.10;1.58;;;7.80;99.90;;;;;;5075085;28;20435;-59
2021/01/25 03:37:54;;;;;;;2.13;0.80;;;7.90;99.90;;;;;;5082216;28;20032;-59
2021/01/25 03:40:20;;;;;;;4.00;0.85;;;7.80;99.90;;;;;;5074106;28;20036;-59
2021/01/25 03:42:46;;;;;;;2.75;1.05;;;7.80;99.90;;;;;;5083669;28;20078;-59
2021/01/25 03:45:12;;;;;;;1.50;0.80;;;7.80;99.90;;;;;;5073230;28;20045;-59
2021/01/25 03:47:37;;;;;;;2.38;0.80;;;7.80;99.90;;;;;;5083886;28;20040;-59
2021/01/25 03:50:05;;;;;;;4.97;1.00;;;7.80;99.90;;;;;;5072691;28;20056;-59
2021/01/25 03:52:30;;;;;;;2.38;0.60;;;7.90;99.90;;;;;;5081270;28;20046;-60
2021/01/25 03:54:56;;;;;;;4.18;0.80;;;7.80;99.90;;;;;;5093253;28;20021;-60
2021/01/25 03:57:22;;;;;;;1.67;0.60;;;7.80;99.90;;;;;;5084744;28;20039;-59
2021/01/25 03:59:47;;;;;;;3.22;0.60;;;7.80;99.90;;;;;;5072812;28;20029;-59
2021/01/25 04:02:13;;;;;;;2.03;0.47;;;7.80;99.90;;;;;;5083976;28;20127;-59
2021/01/25 04:04:42;;;;;;;4.85;0.80;;;7.80;99.90;;;;;;5072590;28;20033;-59
2021/01/25 04:07:11;;;;;;;2.67;0.90;;;7.70;99.90;;;;;;5083886;28;20488;-59
2021/01/25 04:09:40;;;;;;;5.15;0.90;;;7.80;99.90;;;;;;5072627;28;20103;-59
2021/01/25 04:12:07;;;;;;;2.10;0.82;;;7.70;99.90;;;;;;5083515;28;20020;-59
2021/01/25 04:14:32;;;;;;;2.35;0.77;;;7.70;99.90;;;;;;5072657;28;20086;-59
2021/01/25 04:16:58;;;;;;;3.15;1.08;;;7.80;99.90;;;;;;5082303;28;20016;-59
2021/01/25 04:19:24;;;;;;;3.83;1.13;;;7.70;99.90;;;;;;5092121;28;20032;-61
2021/01/25 04:21:50;;;;;;;2.60;0.73;;;7.70;99.90;;;;;;5094820;28;20115;-62
2021/01/25 04:24:15;;;;;;;6.60;0.75;;;7.70;99.90;;;;;;5093367;28;20507;-61
2021/01/25 04:26:44;;;;;;;2.30;0.80;;;7.60;99.90;;;;;;5091598;28;20065;-60
2021/01/25 04:29:10;;;;;;;5.60;1.20;;;7.60;99.90;;;;;;5091806;28;20028;-60
2021/01/25 04:31:36;;;;;;;3.20;0.80;;;7.70;99.90;;;;;;5090012;28;20069;-59
2021/01/25 04:34:03;;;;;;;4.15;1.05;;;7.70;99.90;;;;;;5091581;28;20024;-59
2021/01/25 04:36:28;;;;;;;4.80;0.57;;;7.50;99.90;;;;;;5085427;28;20039;-59
2021/01/25 04:38:54;;;;;;;3.08;0.80;;;7.60;99.90;;;;;;5091741;28;20023;-60
2021/01/25 04:41:20;;;;;;;4.50;0.88;;;7.70;99.90;;;;;;5088231;28;20126;-59
2021/01/25 04:43:47;;;;;;;1.40;0.50;;;7.60;99.90;;;;;;5079598;28;20032;-64
2021/01/25 04:46:14;;;;;;;2.58;0.65;;;7.60;99.90;;;;;;5084298;28;20501;-60
2021/01/25 04:48:43;;;;;;;3.67;0.65;;;7.70;99.90;;;;;;5079468;28;20024;-59
2021/01/25 04:51:10;;;;;;;4.20;0.75;;;7.60;99.90;;;;;;5074662;28;20028;-60
2021/01/25 04:53:37;;;;;;;3.70;0.60;;;7.50;99.90;;;;;;5080122;28;20511;-59
2021/01/25 04:56:04;;;;;;;1.95;0.55;;;7.60;99.90;;;;;;5074379;28;20033;-60
2021/01/25 04:58:30;;;;;;;6.22;1.00;;;7.50;99.90;;;;;;5080545;28;20465;-59
2021/01/25 05:00:55;;;;;;;7.53;0.70;;;7.60;99.90;;;;;;5074031;28;20043;-60
2021/01/25 05:03:21;;;;;;;5.55;0.75;;;7.50;99.90;;;;;;5080590;28;20052;-60
2021/01/25 05:05:47;;;;;;;3.67;0.70;;;7.50;99.90;;;;;;5073864;28;20023;-59
2021/01/25 05:08:12;;;;;;;5.15;0.85;;;7.50;99.90;;;;;;5080561;28;20025;-59
2021/01/25 05:10:38;;;;;;;2.92;1.10;;;7.50;99.90;;;;;;5074052;28;20482;-60
2021/01/25 05:13:04;;;;;;;2.47;0.60;;;7.40;99.90;;;;;;5080290;28;20094;-59
2021/01/25 05:15:31;;;;;;;3.50;0.75;;;7.40;99.90;;;;;;5073324;28;20048;-60
2021/01/25 05:18:02;;;;;;;6.93;1.30;;;7.40;99.90;;;;;;5086907;28;20030;-59
2021/01/25 05:20:29;;;;;;;5.35;1.17;;;7.40;99.90;;;;;;5089385;28;20024;-59
2021/01/25 05:22:56;;;;;;;4.30;0.95;;;7.40;99.90;;;;;;5080892;28;20024;-59
2021/01/25 05:25:24;;;;;;;5.53;0.98;;;7.40;99.90;;;;;;5071961;28;20025;-59
2021/01/25 05:27:50;;;;;;;2.92;0.90;;;7.40;99.90;;;;;;5081523;28;20622;-59
2021/01/25 05:30:16;;;;;;;4.55;0.88;;;7.40;99.90;;;;;;5077422;28;20044;-59
2021/01/25 05:32:49;;;;;;;3.90;0.82;;;7.40;99.90;;;;;;5089446;28;20031;-61
2021/01/25 05:35:16;;;;;;;2.78;1.02;;;7.50;99.90;;;;;;5087186;28;20025;-60
2021/01/25 05:37:44;;;;;;;4.78;1.23;;;7.40;99.90;;;;;;5089806;28;20564;-60
2021/01/25 05:40:16;;;;;;;2.58;0.93;;;7.50;99.90;;;;;;5089944;28;20022;-60
2021/01/25 05:42:42;;;;;;;6.15;1.13;;;7.50;99.90;;;;;;5082999;28;20037;-60
2021/01/25 05:45:09;;;;;;;7.60;1.83;;;7.40;99.90;;;;;;5089933;28;20506;-59
2021/01/25 05:47:46;;;;;;;6.18;1.70;;;7.50;99.90;;;;;;5081795;28;20036;-60
2021/01/25 05:50:25;;;;;;;2.92;1.05;;;7.40;99.90;;;;;;5070755;28;20522;-59
2021/01/25 05:52:52;;;;;;;5.28;1.30;;;7.50;99.90;;;;;;5080663;28;20036;-60
2021/01/25 05:55:18;;;;;;;8.77;1.55;;;7.50;99.90;;;;;;5089302;28;20023;-60
2021/01/25 05:57:44;;;;;;;4.28;0.88;;;7.50;99.90;;;;;;5079390;28;20127;-59
2021/01/25 06:00:10;;;;;;;3.60;0.82;;;7.60;99.90;;;;;;5090085;28;20107;-60
2021/01/25 06:02:40;;;;;;;3.85;1.13;;;7.70;99.90;;;;;;5081525;28;20659;-59
2021/01/25 06:05:08;;;;;;;6.07;0.93;;;7.50;99.90;;;;;;5070163;28;20085;-59
2021/01/25 06:07:34;;;;;;;6.70;1.38;;;7.40;99.90;;;;;;5079047;28;20024;-59
2021/01/25 06:10:03;;;;;;;4.47;1.00;;;7.30;99.90;;;;;;5090491;28;20096;-60
2021/01/25 06:12:38;;;;;;;5.60;0.90;;;7.20;99.90;;;;;;5081793;28;20115;-60
2021/01/25 06:15:17;;;;;;;5.28;1.30;;;7.20;99.90;;;;;;5070259;28;20029;-60
2021/01/25 06:17:46;;;;;;;5.10;1.30;;;7.20;99.90;;;;;;5085313;28;20051;-59
2021/01/25 06:20:16;;;;;;;3.58;1.42;;;7.00;99.90;;;;;;5089005;28;20016;-59
2021/01/25 06:22:44;;;;;;;4.03;1.00;;;7.20;99.90;;;;;;5089417;28;20035;-59
2021/01/25 06:25:11;;;;;;;8.82;1.30;;;7.20;99.90;;;;;;5089232;28;20016;-59
2021/01/25 06:27:37;;;;;;;6.97;1.58;;;7.30;99.90;;;;;;5089374;28;20028;-60
2021/01/25 06:30:04;;;;;;;6.85;1.90;;;7.40;99.90;;;;;;5089434;28;20093;-63
2021/01/25 06:32:34;;;;;;;10.48;2.20;;;7.20;99.90;;;;;;5088549;28;20024;-63
2021/01/25 06:35:04;;;;;;;4.55;2.03;;;7.20;99.90;;;;;;5088211;28;20055;-62
2021/01/25 06:37:34;;;;;;;5.28;1.55;;;7.30;99.90;;;;;;5088208;28;20115;-62
2021/01/25 06:40:09;;;;;;;10.88;1.30;;;7.30;99.90;;;;;;5088451;28;20016;-63
2021/01/25 06:42:40;;;;;;;6.60;1.77;;;7.30;99.90;;;;;;5088281;28;20044;-62
2021/01/25 06:45:07;;;;;;;8.15;1.65;;;7.20;99.90;;;;;;5088279;28;20048;-60
2021/01/25 06:47:36;;;;;;;8.68;2.15;;;7.30;99.90;;;;;;5089110;28;20020;-59
2021/01/25 06:50:04;;;;;;;7.85;2.00;;;7.20;99.90;;;;;;5086175;28;20020;-60
2021/01/25 06:52:31;;;;;;;8.18;2.30;;;7.20;99.90;;;;;;5088319;28;20534;-60
2021/01/25 06:55:03;;;;;;;7.10;2.90;;;7.10;99.90;;;;;;5089134;28;20052;-60
2021/01/25 06:57:38;;;;;;;11.77;4.95;;;7.00;99.90;;;;;;5088230;28;20610;-59
2021/01/25 07:00:12;;;;;;;10.02;4.88;;;7.10;99.90;;;;;;5088897;28;20111;-62
2021/01/25 07:02:57;;;;;;;6.18;3.42;;;6.90;99.90;;;;;;5088168;28;20043;-60
2021/01/25 07:05:27;;;;;;;8.00;2.20;;;7.00;99.90;;;;;;5084271;28;20020;-59
2021/01/25 07:08:22;;;;;;;9.90;2.00;;;6.80;99.90;;;;;;5088559;28;20024;-59
2021/01/25 07:10:57;;;;;;;9.27;1.63;;;6.80;99.90;;;;;;5087147;28;20016;-59
2021/01/25 07:13:28;;;;;;;12.15;2.33;;;6.70;99.90;;;;;;5089219;28;20067;-59
2021/01/25 07:15:55;;;;;;;16.50;2.35;;;6.60;99.90;;;;;;5085285;28;20020;-60
2021/01/25 07:18:23;;;;;;;14.57;1.98;;;6.60;99.90;;;;;;5087913;28;20062;-60
2021/01/25 07:20:50;;;;;;;5.40;2.13;;;6.60;99.90;;;;;;5085937;28;20032;-60
2021/01/25 07:23:18;;;;;;;6.32;1.80;;;6.60;99.90;;;;;;5078292;28;20104;-59
2021/01/25 07:26:03;;;;;;;7.70;2.50;;;6.60;99.90;;;;;;5071856;28;20384;-60
2021/01/25 07:28:31;;;;;;;10.82;1.75;;;6.60;99.90;;;;;;5078431;28;20441;-60
2021/01/25 07:30:57;;;;;;;11.48;1.70;;;6.50;99.90;;;;;;5073511;28;20380;-60
2021/01/25 07:33:24;;;;;;;13.15;1.98;;;6.40;99.90;;;;;;5071115;28;20037;-60
2021/01/25 07:35:50;;;;;;;8.50;1.45;;;6.50;99.90;;;;;;5071684;28;20050;-61
2021/01/25 07:38:16;;;;;;;12.52;2.03;;;6.70;99.90;;;;;;5078149;28;20029;-59
2021/01/25 07:40:46;;;;;;;4.53;1.70;;;6.60;99.90;;;;;;5071647;28;20090;-59
2021/01/25 07:43:16;;;;;;;11.57;2.17;;;6.50;99.90;;;;;;5078345;28;20032;-59
2021/01/25 07:45:42;;;;;;;9.38;1.50;;;6.70;99.90;;;;;;5081518;28;20451;-59
2021/01/25 07:48:11;;;;;;;8.20;1.80;;;6.70;99.90;;;;;;5089008;28;20093;-60
2021/01/25 07:50:38;;;;;;;8.63;1.70;;;6.60;99.90;;;;;;5075231;28;20135;-61
2021/01/25 07:53:05;;;;;;;12.10;2.22;;;6.70;99.90;;;;;;5084928;28;20519;-60
2021/01/25 07:55:36;;;;;;;11.50;1.67;;;6.70;99.90;;;;;;5085834;28;20027;-58
2021/01/25 07:58:07;;;;;;;12.75;1.80;;;6.60;99.90;;;;;;5087913;28;20023;-59
2021/01/25 08:00:34;;;;;;;9.38;2.10;;;6.80;99.90;;;;;;5086344;28;20040;-59
2021/01/25 08:03:21;;;;;;;12.93;1.77;;;6.70;99.90;;;;;;5078458;28;20070;-61
2021/01/25 08:05:53;;;;;;;9.75;1.63;;;6.80;99.90;;;;;;5084465;28;20032;-60
2021/01/25 08:08:20;;;;;;;9.88;1.60;;;6.70;99.90;;;;;;5095656;28;20020;-60
2021/01/25 08:10:46;;;;;;;8.73;1.90;;;6.80;99.90;;;;;;5101137;28;20095;-60
2021/01/25 08:13:17;;;;;;;9.02;2.13;;;6.80;99.90;;;;;;5087936;28;20030;-60
2021/01/25 08:16:11;;;;;;;7.70;2.50;;;6.80;99.90;;;;;;5086314;28;20028;-60
2021/01/25 08:18:58;;;;;;;7.25;2.10;;;6.80;99.90;;;;;;5084911;28;20640;-60
2021/01/25 08:21:32;;;;;;;7.47;2.35;;;6.80;99.90;;;;;;5088472;28;20028;-61
2021/01/25 08:24:01;;;;;;;11.52;2.08;;;6.70;99.90;;;;;;5086956;28;20059;-61
2021/01/25 08:26:28;;;;;;;6.15;1.98;;;6.80;99.90;;;;;;5085620;28;20021;-60
2021/01/25 08:29:00;;;;;;;6.85;1.95;;;6.80;99.90;;;;;;5078435;28;20536;-61
2021/01/25 08:31:39;;;;;;;11.82;2.08;;;6.90;99.90;;;;;;5076921;28;20036;-60
2021/01/25 08:34:29;;;;;;;8.77;1.75;;;6.90;99.90;;;;;;5076973;28;20337;-61
2021/01/25 08:37:08;;;;;;;8.50;2.65;;;6.90;99.90;;;;;;5081142;28;20113;-61
2021/01/25 08:39:42;;;;;;;11.60;2.50;;;6.90;99.90;;;;;;5073063;28;20021;-61
2021/01/25 08:42:31;;;;;;;9.40;2.17;;;6.90;99.90;;;;;;5082604;28;20036;-60
2021/01/25 08:45:22;;;;;;;11.48;2.15;;;6.90;99.90;;;;;;5071657;28;20608;-61
2021/01/25 08:47:48;;;;;;;6.43;2.20;;;6.60;99.90;;;;;;5080669;28;20043;-61
2021/01/25 08:50:26;;;;;;;8.23;2.05;;;6.60;99.90;;;;;;5091104;28;20024;-61
2021/01/25 08:52:59;;;;;;;13.73;2.03;;;6.70;99.90;;;;;;5081882;28;20020;-61
2021/01/25 08:55:29;;;;;;;10.65;1.80;;;6.70;99.90;;;;;;5090522;28;20028;-61
2021/01/25 08:57:55;;;;;;;7.63;2.20;;;6.60;99.90;;;;;;5081749;28;20021;-61
2021/01/25 09:00:26;;;;;;;12.15;2.22;;;6.70;99.90;;;;;;5071931;28;20051;-61
2021/01/25 09:03:02;;;;;;;8.85;1.77;;;6.60;99.90;;;;;;5081257;28;20100;-61
2021/01/25 09:05:28;;;;;;;10.32;2.75;;;6.80;99.90;;;;;;5089959;28;20028;-61
2021/01/25 09:07:54;;;;;;;12.70;1.95;;;6.90;99.90;;;;;;5081739;28;20095;-61
2021/01/25 09:10:20;;;;;;;8.25;1.98;;;6.80;99.90;;;;;;5071945;28;20405;-61
2021/01/25 09:12:46;;;;;;;9.55;1.75;;;6.80;99.90;;;;;;5082627;28;20024;-61
2021/01/25 09:15:12;;;;;;;7.90;1.80;;;6.80;99.90;;;;;;5071449;28;20020;-61
2021/01/25 09:17:38;;;;;;;8.65;1.80;;;6.80;99.90;;;;;;5085729;28;20035;-61
2021/01/25 09:20:06;;;;;;;9.75;2.40;;;6.90;99.90;;;;;;5091541;28;20021;-62
2021/01/25 09:22:32;;;;;;;9.98;1.75;;;7.10;99.90;;;;;;5082601;28;20044;-62
2021/01/25 09:24:58;;;;;;;9.63;2.47;;;7.00;99.90;;;;;;5071223;28;20016;-61
2021/01/25 09:27:24;;;;;;;9.55;2.00;;;6.90;99.90;;;;;;5082358;28;20063;-61
2021/01/25 09:29:50;;;;;;;10.85;1.70;;;7.00;99.90;;;;;;5071211;28;20091;-61
2021/01/25 09:32:15;;;;;;;9.45;1.98;;;7.00;99.90;;;;;;5082494;28;20115;-61
2021/01/25 09:34:44;;;;;;;5.97;2.10;;;7.00;99.90;;;;;;5070969;28;20103;-61
2021/01/25 09:37:10;;;;;;;13.77;2.47;;;7.00;99.90;;;;;;5081611;28;20032;-61
2021/01/25 09:39:37;;;;;;;9.50;2.20;;;7.00;99.90;;;;;;5071650;28;20028;-61
2021/01/25 09:42:04;;;;;;;15.00;2.38;;;7.00;99.90;;;;;;5059141;28;20028;-61
2021/01/25 09:44:30;;;;;;;10.90;2.45;;;7.10;99.90;;;;;;5070758;28;20024;-61
2021/01/25 09:46:57;;;;;;;8.55;2.55;;;7.10;99.90;;;;;;5079618;28;20044;-61
2021/01/25 09:49:23;;;;;;;10.95;3.00;;;7.10;99.90;;;;;;5072997;28;20024;-61
2021/01/25 09:51:49;;;;;;;12.10;3.17;;;7.20;99.90;;;;;;5078119;28;20050;-61
2021/01/25 09:54:15;;;;;;;10.00;2.38;;;7.30;99.90;;;;;;5074389;28;20032;-61
2021/01/25 09:56:41;;;;;;;9.50;2.65;;;7.30;99.90;;;;;;5077303;28;20031;-61
2021/01/25 09:59:06;;;;;;;14.00;5.47;;;7.30;99.90;;;;;;5075424;28;20033;-61
2021/01/25 10:01:32;;;;;;;8.90;4.32;;;7.40;99.90;;;;;;5075512;28;20048;-61
2021/01/25 10:03:58;;;;;;;14.23;4.07;;;7.30;99.90;;;;;;5076397;28;20021;-61
2021/01/25 10:06:27;;;;;;;9.20;3.30;;;7.10;99.90;;;;;;5056427;28;20549;-61
2021/01/25 10:08:53;;;;;;;11.80;3.58;;;7.20;99.90;;;;;;5077113;28;20033;-61
2021/01/25 10:11:19;;;;;;;8.77;3.10;;;7.20;99.90;;;;;;5074018;28;20378;-61
2021/01/25 10:13:44;;;;;;;15.18;2.97;;;7.10;99.90;;;;;;5078235;28;20056;-61
2021/01/25 10:16:10;;;;;;;11.95;3.13;;;7.20;99.90;;;;;;5072710;28;20056;-61
2021/01/25 10:18:36;;;;;;;9.00;2.40;;;7.00;99.90;;;;;;5090228;28;20439;-61
2021/01/25 10:21:01;;;;;;;10.60;3.80;;;7.10;99.90;;;;;;5084930;28;20520;-61
2021/01/25 10:23:28;;;;;;;10.13;3.13;;;7.20;99.90;;;;;;5079053;28;20036;-61
2021/01/25 10:25:54;;;;;;;9.40;3.15;;;7.00;99.90;;;;;;5072796;28;20484;-61
2021/01/25 10:28:20;;;;;;;13.90;3.55;;;7.30;99.90;;;;;;5079103;28;20024;-61
2021/01/25 10:30:46;;;;;;;7.05;3.55;;;7.20;99.90;;;;;;5072371;28;20070;-61
2021/01/25 10:33:13;;;;;;;20.73;4.65;;;7.30;99.90;;;;;;5079042;28;20074;-61
2021/01/25 10:35:38;;;;;;;12.65;3.58;;;7.40;99.90;;;;;;5071595;28;20027;-61
2021/01/25 10:38:05;;;;;;;16.17;4.68;;;7.40;99.90;;;;;;5078791;28;20028;-67
2021/01/25 10:40:31;;;;;;;14.00;3.30;;;7.40;99.90;;;;;;5070313;28;20008;-67
2021/01/25 10:42:57;;;;;;;5.80;2.47;;;7.40;99.90;;;;;;5080050;28;20032;-67
2021/01/25 10:45:22;;;;;;;11.60;2.45;;;7.40;99.90;;;;;;5070094;28;20131;-67
2021/01/25 10:47:49;;;;;;;9.00;2.85;;;7.20;99.90;;;;;;5080678;28;20516;-67
2021/01/25 10:50:16;;;;;;;9.25;3.25;;;7.20;99.90;;;;;;5069677;28;20622;-68
2021/01/25 10:52:43;;;;;;;8.82;3.08;;;7.20;99.90;;;;;;5080745;28;20026;-67
2021/01/25 10:55:09;;;;;;;12.65;2.95;;;7.30;99.90;;;;;;5069960;28;20101;-68
2021/01/25 10:57:34;;;;;;;13.23;3.00;;;7.50;99.90;;;;;;5081300;28;20053;-68
2021/01/25 11:00:16;;;;;;;11.48;3.00;;;7.70;99.90;;;;;;5069776;28;20579;-68
2021/01/25 11:02:42;;;;;;;6.68;2.28;;;7.60;99.90;;;;;;5080569;28;20036;-68
2021/01/25 11:05:10;;;;;;;7.60;3.03;;;7.70;99.90;;;;;;5069490;28;20070;-68
2021/01/25 11:07:36;;;;;;;8.38;3.05;;;7.90;99.90;;;;;;5061370;28;20094;-68
2021/01/25 11:10:08;;;;;;;9.95;3.10;;;7.60;99.90;;;;;;5094279;28;20070;-68
2021/01/25 11:12:34;;;;;;;8.60;3.40;;;7.90;99.90;;;;;;5080870;28;20035;-68
2021/01/25 11:15:00;;;;;;;11.27;3.85;;;7.80;99.90;;;;;;5088209;28;20525;-67
2021/01/25 11:17:26;;;;;;;9.73;3.60;;;7.80;99.90;;;;;;5087735;28;20028;-67
2021/01/25 11:19:52;;;;;;;11.20;4.35;;;7.70;99.90;;;;;;5088941;28;20028;-68
2021/01/25 11:22:18;;;;;;;10.40;3.92;;;7.60;99.90;;;;;;5087599;28;20028;-67
2021/01/25 11:24:43;;;;;;;10.77;4.00;;;7.70;99.90;;;;;;5090918;28;20040;-68
2021/01/25 11:27:09;;;;;;;11.30;3.78;;;7.60;99.90;;;;;;5091521;28;20028;-68
2021/01/25 11:29:35;;;;;;;8.68;4.22;;;7.70;99.90;;;;;;5086794;28;20063;-68
2021/01/25 11:32:03;;;;;;;13.05;4.43;;;7.60;99.90;;;;;;5082124;28;20037;-68
2021/01/25 11:34:29;;;;;;;6.43;4.55;;;7.60;99.90;;;;;;5082795;28;20085;-68
2021/01/25 11:36:56;;;;;;;10.43;4.40;;;7.80;99.90;;;;;;5086256;28;20016;-66
2021/01/25 11:39:23;;;;;;;9.80;3.95;;;7.80;99.90;;;;;;5088951;28;20028;-68
2021/01/25 11:41:49;;;;;;;5.97;3.67;;;7.70;99.90;;;;;;5082703;28;20470;-68
2021/01/25 11:44:14;;;;;;;11.48;4.20;;;7.70;99.90;;;;;;5073044;28;20107;-68
2021/01/25 11:46:40;;;;;;;7.53;4.07;;;7.70;99.90;;;;;;5075224;28;20440;-68
2021/01/25 11:49:06;;;;;;;8.38;3.80;;;7.60;99.90;;;;;;5074194;28;20025;-68
2021/01/25 11:51:32;;;;;;;8.38;4.25;;;7.80;99.90;;;;;;5076741;28;20028;-68
2021/01/25 11:53:57;;;;;;;8.77;4.22;;;7.90;99.90;;;;;;5079285;28;20524;-68
2021/01/25 11:56:24;;;;;;;6.38;3.20;;;7.80;99.90;;;;;;5076797;28;20029;-68
2021/01/25 11:58:50;;;;;;;8.40;3.35;;;7.60;99.90;;;;;;5089784;28;20077;-68
2021/01/25 12:01:16;;;;;;;9.73;5.40;;;7.70;99.90;;;;;;5076924;28;20025;-69
2021/01/25 12:03:41;;;;;;;10.02;4.63;;;7.90;99.90;;;;;;5081402;28;20036;-68
2021/01/25 12:06:07;;;;;;;6.13;3.95;;;7.80;99.90;;;;;;5074866;28;20087;-68
2021/01/25 12:08:35;;;;;;;5.88;3.58;;;7.80;99.90;;;;;;5081812;28;20035;-68
2021/01/25 12:11:05;;;;;;;6.65;2.67;;;8.00;99.90;;;;;;5074999;28;20031;-68
2021/01/25 12:13:30;;;;;;;9.38;2.75;;;7.80;99.90;;;;;;5081375;28;20074;-68
2021/01/25 12:15:57;;;;;;;4.28;2.03;;;7.80;99.90;;;;;;5074981;28;20024;-68
2021/01/25 12:18:23;;;;;;;8.65;2.28;;;7.90;99.90;;;;;;5089045;28;20181;-68
2021/01/25 12:20:49;;;;;;;7.65;2.55;;;8.10;99.90;;;;;;5087859;28;20127;-68
2021/01/25 12:23:14;;;;;;;5.75;2.28;;;8.00;99.90;;;;;;5081140;28;20104;-68
2021/01/25 12:25:40;;;;;;;5.95;2.33;;;7.80;99.90;;;;;;5074705;28;20028;-68
2021/01/25 12:28:07;;;;;;;7.25;2.25;;;7.90;99.90;;;;;;5081379;28;20021;-68
2021/01/25 12:30:33;;;;;;;3.13;1.23;;;8.00;99.90;;;;;;5080348;28;20032;-68
2021/01/25 12:32:59;;;;;;;5.57;1.83;;;8.10;99.90;;;;;;5088869;28;20020;-68
2021/01/25 12:35:25;;;;;;;5.75;2.10;;;8.00;99.90;;;;;;5090752;28;20103;-69
2021/01/25 12:37:53;;;;;;;5.35;2.22;;;8.10;99.90;;;;;;5091871;28;20484;-68
2021/01/25 12:40:20;;;;;;;6.90;2.25;;;8.00;99.90;;;;;;5093917;28;20119;-69
2021/01/25 12:42:46;;;;;;;4.85;2.22;;;8.00;99.90;;;;;;5092157;28;20544;-68
2021/01/25 12:45:13;;;;;;;7.55;1.75;;;8.10;99.90;;;;;;5092492;28;20122;-68
2021/01/25 12:47:40;;;;;;;5.18;2.00;;;8.20;99.90;;;;;;5091355;28;20677;-69
2021/01/25 12:50:06;;;;;;;4.78;2.00;;;8.20;99.90;;;;;;5088698;28;20019;-68
2021/01/25 12:52:33;;;;;;;5.63;1.90;;;8.40;99.90;;;;;;5089130;28;20043;-67
2021/01/25 12:54:59;;;;;;;5.15;1.95;;;8.40;99.90;;;;;;5091488;28;20069;-68
2021/01/25 12:57:25;;;;;;;7.53;2.25;;;8.50;99.90;;;;;;5089253;28;20051;-68